sensor_id;sensor_type;location;lat;lon;timestamp;P1;durP1;ratioP1;P2;durP2;ratioP2
13252;SDS011;6693;54.370;10.132;2022-07-25T00:00:39;10.63;;;9.60;;
13252;SDS011;6693;54.370;10.132;2022-07-25T00:02:41;9.63;;;8.73;;
13252;SDS011;6693;54.370;10.132;2022-07-25T00:04:43;10.45;;;9.40;;
13252;SDS011;6693;54.370;10.132;2022-07-25T00:06:45;11.35;;;10.10;;
13252;SDS011;6693;54.370;10.132;2022-07-25T00:08:46;10.80;;;9.90;;
13252;SDS011;6693;54.370;10.132;2022-07-25T00:10:49;10.15;;;9.35;;
13252;SDS011;6693;54.370;10.132;2022-07-25T00:12:51;9.73;;;8.93;;
13252;SDS011;6693;54.370;10.132;2022-07-25T00:14:53;9.68;;;8.90;;
13252;SDS011;6693;54.370;10.132;2022-07-25T00:16:54;10.48;;;9.57;;
13252;SDS011;6693;54.370;10.132;2022-07-25T00:18:56;10.25;;;9.18;;
13252;SDS011;6693;54.370;10.132;2022-07-25T00:20:58;10.48;;;9.68;;
13252;SDS011;6693;54.370;10.132;2022-07-25T00:23:00;10.52;;;9.63;;
13252;SDS011;6693;54.370;10.132;2022-07-25T00:25:02;10.10;;;9.27;;
13252;SDS011;6693;54.370;10.132;2022-07-25T00:27:05;10.82;;;9.90;;
13252;SDS011;6693;54.370;10.132;2022-07-25T00:29:07;10.73;;;9.82;;
13252;SDS011;6693;54.370;10.132;2022-07-25T00:31:08;10.88;;;9.93;;
13252;SDS011;6693;54.370;10.132;2022-07-25T00:33:10;10.43;;;9.63;;
13252;SDS011;6693;54.370;10.132;2022-07-25T00:35:12;10.18;;;9.43;;
13252;SDS011;6693;54.370;10.132;2022-07-25T00:37:13;10.23;;;9.38;;
13252;SDS011;6693;54.370;10.132;2022-07-25T00:39:15;10.05;;;9.10;;
13252;SDS011;6693;54.370;10.132;2022-07-25T00:41:17;10.05;;;9.15;;
13252;SDS011;6693;54.370;10.132;2022-07-25T00:43:20;9.45;;;8.68;;
13252;SDS011;6693;54.370;10.132;2022-07-25T00:45:21;9.82;;;9.02;;
13252;SDS011;6693;54.370;10.132;2022-07-25T00:47:23;11.23;;;10.20;;
13252;SDS011;6693;54.370;10.132;2022-07-25T00:49:25;11.02;;;10.02;;
13252;SDS011;6693;54.370;10.132;2022-07-25T00:51:26;11.13;;;10.23;;
13252;SDS011;6693;54.370;10.132;2022-07-25T00:53:28;11.48;;;10.38;;
13252;SDS011;6693;54.370;10.132;2022-07-25T00:55:30;10.70;;;9.70;;
13252;SDS011;6693;54.370;10.132;2022-07-25T00:57:33;10.95;;;9.95;;
13252;SDS011;6693;54.370;10.132;2022-07-25T00:59:36;11.20;;;10.05;;
13252;SDS011;6693;54.370;10.132;2022-07-25T01:01:38;9.95;;;9.05;;
13252;SDS011;6693;54.370;10.132;2022-07-25T01:03:41;10.20;;;9.40;;
13252;SDS011;6693;54.370;10.132;2022-07-25T01:05:43;10.10;;;9.20;;
13252;SDS011;6693;54.370;10.132;2022-07-25T01:07:45;10.57;;;9.68;;
13252;SDS011;6693;54.370;10.132;2022-07-25T01:09:47;10.35;;;9.48;;
13252;SDS011;6693;54.370;10.132;2022-07-25T01:11:49;10.60;;;9.73;;
13252;SDS011;6693;54.370;10.132;2022-07-25T01:13:51;11.10;;;10.07;;
13252;SDS011;6693;54.370;10.132;2022-07-25T01:15:54;10.50;;;9.70;;
13252;SDS011;6693;54.370;10.132;2022-07-25T01:17:55;9.73;;;8.93;;
13252;SDS011;6693;54.370;10.132;2022-07-25T01:19:57;11.60;;;10.60;;
13252;SDS011;6693;54.370;10.132;2022-07-25T01:22:00;11.25;;;10.25;;
13252;SDS011;6693;54.370;10.132;2022-07-25T01:24:02;10.80;;;9.82;;
13252;SDS011;6693;54.370;10.132;2022-07-25T01:26:04;10.73;;;9.82;;
13252;SDS011;6693;54.370;10.132;2022-07-25T01:28:06;10.73;;;9.82;;
13252;SDS011;6693;54.370;10.132;2022-07-25T01:30:09;10.77;;;9.88;;
13252;SDS011;6693;54.370;10.132;2022-07-25T01:32:12;12.15;;;11.10;;
13252;SDS011;6693;54.370;10.132;2022-07-25T01:34:14;11.68;;;10.55;;
13252;SDS011;6693;54.370;10.132;2022-07-25T01:36:15;10.85;;;10.02;;
13252;SDS011;6693;54.370;10.132;2022-07-25T01:38:18;12.10;;;10.73;;
13252;SDS011;6693;54.370;10.132;2022-07-25T01:40:20;10.82;;;9.85;;
13252;SDS011;6693;54.370;10.132;2022-07-25T01:42:22;11.23;;;10.23;;
13252;SDS011;6693;54.370;10.132;2022-07-25T01:44:24;12.55;;;11.15;;
13252;SDS011;6693;54.370;10.132;2022-07-25T01:46:26;11.57;;;10.57;;
13252;SDS011;6693;54.370;10.132;2022-07-25T01:48:28;10.98;;;9.98;;
13252;SDS011;6693;54.370;10.132;2022-07-25T01:50:29;12.70;;;11.65;;
13252;SDS011;6693;54.370;10.132;2022-07-25T01:52:31;12.60;;;11.60;;
13252;SDS011;6693;54.370;10.132;2022-07-25T01:54:34;12.30;;;11.30;;
13252;SDS011;6693;54.370;10.132;2022-07-25T01:56:36;12.30;;;11.30;;
13252;SDS011;6693;54.370;10.132;2022-07-25T01:58:43;12.00;;;11.00;;
13252;SDS011;6693;54.370;10.132;2022-07-25T02:00:45;11.98;;;10.98;;
13252;SDS011;6693;54.370;10.132;2022-07-25T02:02:47;13.30;;;12.10;;
13252;SDS011;6693;54.370;10.132;2022-07-25T02:05:09;12.10;;;11.10;;
13252;SDS011;6693;54.370;10.132;2022-07-25T02:07:11;12.85;;;11.65;;
13252;SDS011;6693;54.370;10.132;2022-07-25T02:09:13;14.43;;;13.07;;
13252;SDS011;6693;54.370;10.132;2022-07-25T02:11:16;15.50;;;14.20;;
13252;SDS011;6693;54.370;10.132;2022-07-25T02:13:18;13.38;;;12.30;;
13252;SDS011;6693;54.370;10.132;2022-07-25T02:15:20;14.43;;;13.13;;
13252;SDS011;6693;54.370;10.132;2022-07-25T02:17:21;14.40;;;13.30;;
13252;SDS011;6693;54.370;10.132;2022-07-25T02:19:23;14.70;;;13.60;;
13252;SDS011;6693;54.370;10.132;2022-07-25T02:21:25;13.10;;;12.00;;
13252;SDS011;6693;54.370;10.132;2022-07-25T02:23:26;13.23;;;12.13;;
13252;SDS011;6693;54.370;10.132;2022-07-25T02:25:28;12.52;;;11.50;;
13252;SDS011;6693;54.370;10.132;2022-07-25T02:27:31;12.93;;;11.82;;
13252;SDS011;6693;54.370;10.132;2022-07-25T02:29:33;11.05;;;10.13;;
13252;SDS011;6693;54.370;10.132;2022-07-25T02:31:34;11.25;;;10.35;;
13252;SDS011;6693;54.370;10.132;2022-07-25T02:33:36;11.40;;;10.50;;
13252;SDS011;6693;54.370;10.132;2022-07-25T02:35:38;11.55;;;10.65;;
13252;SDS011;6693;54.370;10.132;2022-07-25T02:37:40;11.57;;;10.57;;
13252;SDS011;6693;54.370;10.132;2022-07-25T02:39:41;10.68;;;9.77;;
13252;SDS011;6693;54.370;10.132;2022-07-25T02:41:43;10.40;;;9.60;;
13252;SDS011;6693;54.370;10.132;2022-07-25T02:43:46;10.25;;;9.27;;
13252;SDS011;6693;54.370;10.132;2022-07-25T02:45:48;10.15;;;9.25;;
13252;SDS011;6693;54.370;10.132;2022-07-25T02:47:49;10.18;;;9.35;;
13252;SDS011;6693;54.370;10.132;2022-07-25T02:49:51;9.55;;;8.70;;
13252;SDS011;6693;54.370;10.132;2022-07-25T02:51:53;9.82;;;9.02;;
13252;SDS011;6693;54.370;10.132;2022-07-25T02:53:56;9.50;;;8.63;;
13252;SDS011;6693;54.370;10.132;2022-07-25T02:55:58;10.23;;;9.35;;
13252;SDS011;6693;54.370;10.132;2022-07-25T02:57:59;9.50;;;8.70;;
13252;SDS011;6693;54.370;10.132;2022-07-25T03:00:03;8.95;;;8.18;;
13252;SDS011;6693;54.370;10.132;2022-07-25T03:02:05;8.88;;;8.07;;
13252;SDS011;6693;54.370;10.132;2022-07-25T03:04:07;8.90;;;8.15;;
13252;SDS011;6693;54.370;10.132;2022-07-25T03:06:09;8.55;;;7.85;;
13252;SDS011;6693;54.370;10.132;2022-07-25T03:08:10;8.73;;;7.93;;
13252;SDS011;6693;54.370;10.132;2022-07-25T03:10:12;8.05;;;7.45;;
13252;SDS011;6693;54.370;10.132;2022-07-25T03:12:14;8.95;;;7.72;;
13252;SDS011;6693;54.370;10.132;2022-07-25T03:14:16;8.32;;;7.65;;
13252;SDS011;6693;54.370;10.132;2022-07-25T03:16:19;8.45;;;7.75;;
13252;SDS011;6693;54.370;10.132;2022-07-25T03:18:21;8.23;;;7.43;;
13252;SDS011;6693;54.370;10.132;2022-07-25T03:20:22;8.30;;;7.50;;
13252;SDS011;6693;54.370;10.132;2022-07-25T03:22:24;8.93;;;7.78;;
13252;SDS011;6693;54.370;10.132;2022-07-25T03:24:26;8.30;;;7.70;;
13252;SDS011;6693;54.370;10.132;2022-07-25T03:26:27;8.13;;;7.40;;
13252;SDS011;6693;54.370;10.132;2022-07-25T03:28:29;7.72;;;7.13;;
13252;SDS011;6693;54.370;10.132;2022-07-25T03:30:31;7.68;;;6.95;;
13252;SDS011;6693;54.370;10.132;2022-07-25T03:32:34;8.10;;;7.50;;
13252;SDS011;6693;54.370;10.132;2022-07-25T03:34:35;8.10;;;7.30;;
13252;SDS011;6693;54.370;10.132;2022-07-25T03:36:37;7.82;;;6.90;;
13252;SDS011;6693;54.370;10.132;2022-07-25T03:38:39;7.50;;;6.90;;
13252;SDS011;6693;54.370;10.132;2022-07-25T03:40:40;8.48;;;7.28;;
13252;SDS011;6693;54.370;10.132;2022-07-25T03:42:42;10.80;;;6.75;;
13252;SDS011;6693;54.370;10.132;2022-07-25T03:44:44;7.32;;;6.75;;
13252;SDS011;6693;54.370;10.132;2022-07-25T03:46:45;7.95;;;7.10;;
13252;SDS011;6693;54.370;10.132;2022-07-25T03:48:48;6.78;;;6.20;;
13252;SDS011;6693;54.370;10.132;2022-07-25T03:50:50;7.82;;;7.05;;
13252;SDS011;6693;54.370;10.132;2022-07-25T03:52:52;7.18;;;6.57;;
13252;SDS011;6693;54.370;10.132;2022-07-25T03:54:53;8.75;;;7.97;;
13252;SDS011;6693;54.370;10.132;2022-07-25T03:56:55;7.55;;;6.95;;
13252;SDS011;6693;54.370;10.132;2022-07-25T03:58:57;8.93;;;6.68;;
13252;SDS011;6693;54.370;10.132;2022-07-25T04:00:58;6.95;;;6.35;;
13252;SDS011;6693;54.370;10.132;2022-07-25T04:03:00;6.55;;;6.05;;
13252;SDS011;6693;54.370;10.132;2022-07-25T04:05:03;6.63;;;5.95;;
13252;SDS011;6693;54.370;10.132;2022-07-25T04:07:06;6.28;;;5.78;;
13252;SDS011;6693;54.370;10.132;2022-07-25T04:09:08;6.55;;;5.95;;
13252;SDS011;6693;54.370;10.132;2022-07-25T04:11:10;6.70;;;6.05;;
13252;SDS011;6693;54.370;10.132;2022-07-25T04:13:12;6.35;;;5.85;;
13252;SDS011;6693;54.370;10.132;2022-07-25T04:15:13;6.25;;;5.75;;
13252;SDS011;6693;54.370;10.132;2022-07-25T04:17:15;6.75;;;5.97;;
13252;SDS011;6693;54.370;10.132;2022-07-25T04:19:17;6.40;;;5.90;;
13252;SDS011;6693;54.370;10.132;2022-07-25T04:21:20;12.55;;;11.45;;
13252;SDS011;6693;54.370;10.132;2022-07-25T04:23:22;6.03;;;5.53;;
13252;SDS011;6693;54.370;10.132;2022-07-25T04:25:23;6.40;;;5.70;;
13252;SDS011;6693;54.370;10.132;2022-07-25T04:27:25;6.00;;;5.50;;
13252;SDS011;6693;54.370;10.132;2022-07-25T04:29:27;11.63;;;10.63;;
13252;SDS011;6693;54.370;10.132;2022-07-25T04:31:29;6.70;;;6.13;;
13252;SDS011;6693;54.370;10.132;2022-07-25T04:33:30;6.13;;;5.60;;
13252;SDS011;6693;54.370;10.132;2022-07-25T04:35:32;6.07;;;5.38;;
13252;SDS011;6693;54.370;10.132;2022-07-25T04:37:36;7.65;;;6.95;;
13252;SDS011;6693;54.370;10.132;2022-07-25T04:39:37;6.30;;;5.80;;
13252;SDS011;6693;54.370;10.132;2022-07-25T04:41:39;6.47;;;5.82;;
13252;SDS011;6693;54.370;10.132;2022-07-25T04:43:41;6.78;;;6.18;;
13252;SDS011;6693;54.370;10.132;2022-07-25T04:45:42;6.43;;;5.72;;
13252;SDS011;6693;54.370;10.132;2022-07-25T04:47:44;6.72;;;5.55;;
13252;SDS011;6693;54.370;10.132;2022-07-25T04:49:46;6.28;;;5.47;;
13252;SDS011;6693;54.370;10.132;2022-07-25T04:51:48;9.23;;;8.30;;
13252;SDS011;6693;54.370;10.132;2022-07-25T04:53:51;7.30;;;5.70;;
13252;SDS011;6693;54.370;10.132;2022-07-25T04:55:52;5.75;;;5.30;;
13252;SDS011;6693;54.370;10.132;2022-07-25T04:57:54;5.82;;;5.32;;
13252;SDS011;6693;54.370;10.132;2022-07-25T04:59:56;7.85;;;7.18;;
13252;SDS011;6693;54.370;10.132;2022-07-25T05:01:57;5.55;;;5.15;;
13252;SDS011;6693;54.370;10.132;2022-07-25T05:03:59;6.22;;;5.70;;
13252;SDS011;6693;54.370;10.132;2022-07-25T05:06:01;5.60;;;5.10;;
13252;SDS011;6693;54.370;10.132;2022-07-25T05:08:03;6.07;;;5.13;;
13252;SDS011;6693;54.370;10.132;2022-07-25T05:10:07;5.97;;;5.38;;
13252;SDS011;6693;54.370;10.132;2022-07-25T05:12:09;6.20;;;5.68;;
13252;SDS011;6693;54.370;10.132;2022-07-25T05:14:11;9.38;;;5.10;;
13252;SDS011;6693;54.370;10.132;2022-07-25T05:16:12;6.05;;;5.50;;
13252;SDS011;6693;54.370;10.132;2022-07-25T05:18:14;7.60;;;5.57;;
13252;SDS011;6693;54.370;10.132;2022-07-25T05:20:16;6.03;;;5.18;;
13252;SDS011;6693;54.370;10.132;2022-07-25T05:22:17;5.38;;;4.88;;
13252;SDS011;6693;54.370;10.132;2022-07-25T05:24:19;5.63;;;4.97;;
13252;SDS011;6693;54.370;10.132;2022-07-25T05:26:23;5.38;;;4.97;;
13252;SDS011;6693;54.370;10.132;2022-07-25T05:28:25;5.55;;;5.05;;
13252;SDS011;6693;54.370;10.132;2022-07-25T05:30:26;5.55;;;5.10;;
13252;SDS011;6693;54.370;10.132;2022-07-25T05:32:28;4.90;;;4.50;;
13252;SDS011;6693;54.370;10.132;2022-07-25T05:34:30;5.43;;;5.03;;
13252;SDS011;6693;54.370;10.132;2022-07-25T05:36:31;6.10;;;5.50;;
13252;SDS011;6693;54.370;10.132;2022-07-25T05:38:33;5.30;;;4.80;;
13252;SDS011;6693;54.370;10.132;2022-07-25T05:40:35;5.15;;;4.75;;
13252;SDS011;6693;54.370;10.132;2022-07-25T05:42:38;5.63;;;5.13;;
13252;SDS011;6693;54.370;10.132;2022-07-25T05:44:39;5.57;;;5.18;;
13252;SDS011;6693;54.370;10.132;2022-07-25T05:46:41;5.03;;;4.50;;
13252;SDS011;6693;54.370;10.132;2022-07-25T05:48:43;5.13;;;4.63;;
13252;SDS011;6693;54.370;10.132;2022-07-25T05:50:45;5.15;;;4.75;;
13252;SDS011;6693;54.370;10.132;2022-07-25T05:52:46;5.25;;;4.85;;
13252;SDS011;6693;54.370;10.132;2022-07-25T05:54:48;5.25;;;4.78;;
13252;SDS011;6693;54.370;10.132;2022-07-25T05:56:50;6.03;;;5.03;;
13252;SDS011;6693;54.370;10.132;2022-07-25T05:58:53;5.65;;;5.15;;
13252;SDS011;6693;54.370;10.132;2022-07-25T06:00:55;5.50;;;4.90;;
13252;SDS011;6693;54.370;10.132;2022-07-25T06:02:57;5.70;;;4.72;;
13252;SDS011;6693;54.370;10.132;2022-07-25T06:05:00;5.75;;;4.90;;
13252;SDS011;6693;54.370;10.132;2022-07-25T06:07:01;6.20;;;4.68;;
13252;SDS011;6693;54.370;10.132;2022-07-25T06:09:03;4.72;;;4.32;;
13252;SDS011;6693;54.370;10.132;2022-07-25T06:11:05;5.40;;;4.90;;
13252;SDS011;6693;54.370;10.132;2022-07-25T06:13:07;5.35;;;4.95;;
13252;SDS011;6693;54.370;10.132;2022-07-25T06:15:11;5.50;;;5.00;;
13252;SDS011;6693;54.370;10.132;2022-07-25T06:17:12;5.78;;;4.85;;
13252;SDS011;6693;54.370;10.132;2022-07-25T06:19:14;5.43;;;4.90;;
13252;SDS011;6693;54.370;10.132;2022-07-25T06:21:16;5.70;;;4.57;;
13252;SDS011;6693;54.370;10.132;2022-07-25T06:23:18;5.28;;;4.70;;
13252;SDS011;6693;54.370;10.132;2022-07-25T06:25:20;6.28;;;4.88;;
13252;SDS011;6693;54.370;10.132;2022-07-25T06:27:22;4.68;;;4.30;;
13252;SDS011;6693;54.370;10.132;2022-07-25T06:29:24;5.03;;;4.63;;
13252;SDS011;6693;54.370;10.132;2022-07-25T06:31:27;5.13;;;4.72;;
13252;SDS011;6693;54.370;10.132;2022-07-25T06:33:28;6.13;;;4.60;;
13252;SDS011;6693;54.370;10.132;2022-07-25T06:35:30;5.03;;;4.63;;
13252;SDS011;6693;54.370;10.132;2022-07-25T06:37:35;4.65;;;4.35;;
13252;SDS011;6693;54.370;10.132;2022-07-25T06:39:37;5.00;;;4.53;;
13252;SDS011;6693;54.370;10.132;2022-07-25T06:41:38;5.65;;;4.57;;
13252;SDS011;6693;54.370;10.132;2022-07-25T06:43:40;5.28;;;4.78;;
13252;SDS011;6693;54.370;10.132;2022-07-25T06:45:42;5.30;;;4.80;;
13252;SDS011;6693;54.370;10.132;2022-07-25T06:47:47;5.47;;;5.00;;
13252;SDS011;6693;54.370;10.132;2022-07-25T06:49:50;6.05;;;5.07;;
13252;SDS011;6693;54.370;10.132;2022-07-25T06:51:51;5.40;;;4.90;;
13252;SDS011;6693;54.370;10.132;2022-07-25T06:53:53;5.20;;;4.70;;
13252;SDS011;6693;54.370;10.132;2022-07-25T06:55:55;5.20;;;4.70;;
13252;SDS011;6693;54.370;10.132;2022-07-25T06:57:57;5.38;;;4.85;;
13252;SDS011;6693;54.370;10.132;2022-07-25T06:59:59;5.38;;;4.88;;
13252;SDS011;6693;54.370;10.132;2022-07-25T07:02:00;5.63;;;5.05;;
13252;SDS011;6693;54.370;10.132;2022-07-25T07:04:03;5.22;;;4.75;;
13252;SDS011;6693;54.370;10.132;2022-07-25T07:06:06;8.10;;;7.35;;
13252;SDS011;6693;54.370;10.132;2022-07-25T07:08:08;5.20;;;4.80;;
13252;SDS011;6693;54.370;10.132;2022-07-25T07:10:10;6.25;;;5.22;;
13252;SDS011;6693;54.370;10.132;2022-07-25T07:12:11;7.55;;;5.30;;
13252;SDS011;6693;54.370;10.132;2022-07-25T07:14:13;5.28;;;4.65;;
13252;SDS011;6693;54.370;10.132;2022-07-25T07:16:15;6.00;;;5.05;;
13252;SDS011;6693;54.370;10.132;2022-07-25T07:18:16;6.15;;;5.25;;
13252;SDS011;6693;54.370;10.132;2022-07-25T07:20:20;4.93;;;4.53;;
13252;SDS011;6693;54.370;10.132;2022-07-25T07:22:21;5.32;;;4.82;;
13252;SDS011;6693;54.370;10.132;2022-07-25T07:24:23;5.20;;;4.70;;
13252;SDS011;6693;54.370;10.132;2022-07-25T07:26:25;5.07;;;4.68;;
13252;SDS011;6693;54.370;10.132;2022-07-25T07:28:26;4.75;;;4.45;;
13252;SDS011;6693;54.370;10.132;2022-07-25T07:30:28;5.35;;;4.95;;
13252;SDS011;6693;54.370;10.132;2022-07-25T07:32:30;5.30;;;4.90;;
13252;SDS011;6693;54.370;10.132;2022-07-25T07:34:32;5.32;;;4.90;;
13252;SDS011;6693;54.370;10.132;2022-07-25T07:36:35;4.85;;;4.45;;
13252;SDS011;6693;54.370;10.132;2022-07-25T07:38:37;5.22;;;4.82;;
13252;SDS011;6693;54.370;10.132;2022-07-25T07:40:38;6.03;;;5.53;;
13252;SDS011;6693;54.370;10.132;2022-07-25T07:42:41;5.25;;;4.85;;
13252;SDS011;6693;54.370;10.132;2022-07-25T07:44:43;5.70;;;5.20;;
13252;SDS011;6693;54.370;10.132;2022-07-25T07:46:45;5.53;;;5.03;;
13252;SDS011;6693;54.370;10.132;2022-07-25T07:48:46;6.47;;;5.32;;
13252;SDS011;6693;54.370;10.132;2022-07-25T07:50:48;5.45;;;5.05;;
13252;SDS011;6693;54.370;10.132;2022-07-25T07:52:51;5.70;;;5.07;;
13252;SDS011;6693;54.370;10.132;2022-07-25T07:54:54;6.40;;;4.63;;
13252;SDS011;6693;54.370;10.132;2022-07-25T07:57:13;5.47;;;5.07;;
13252;SDS011;6693;54.370;10.132;2022-07-25T07:59:15;5.32;;;4.93;;
13252;SDS011;6693;54.370;10.132;2022-07-25T08:01:17;5.50;;;5.03;;
13252;SDS011;6693;54.370;10.132;2022-07-25T08:03:19;5.82;;;4.97;;
13252;SDS011;6693;54.370;10.132;2022-07-25T08:05:22;5.95;;;5.53;;
13252;SDS011;6693;54.370;10.132;2022-07-25T08:07:25;5.68;;;5.18;;
13252;SDS011;6693;54.370;10.132;2022-07-25T08:09:28;5.63;;;5.13;;
13252;SDS011;6693;54.370;10.132;2022-07-25T08:11:29;5.50;;;5.10;;
13252;SDS011;6693;54.370;10.132;2022-07-25T08:13:31;5.63;;;5.05;;
13252;SDS011;6693;54.370;10.132;2022-07-25T08:15:33;5.40;;;4.90;;
13252;SDS011;6693;54.370;10.132;2022-07-25T08:17:35;5.13;;;4.38;;
13252;SDS011;6693;54.370;10.132;2022-07-25T08:19:37;5.43;;;4.90;;
13252;SDS011;6693;54.370;10.132;2022-07-25T08:21:39;5.57;;;5.13;;
13252;SDS011;6693;54.370;10.132;2022-07-25T08:23:41;6.10;;;5.47;;
13252;SDS011;6693;54.370;10.132;2022-07-25T08:25:47;6.97;;;6.43;;
13252;SDS011;6693;54.370;10.132;2022-07-25T08:27:49;7.00;;;6.32;;
13252;SDS011;6693;54.370;10.132;2022-07-25T08:29:52;6.88;;;5.65;;
13252;SDS011;6693;54.370;10.132;2022-07-25T08:31:53;6.43;;;5.82;;
13252;SDS011;6693;54.370;10.132;2022-07-25T08:33:55;6.13;;;5.53;;
13252;SDS011;6693;54.370;10.132;2022-07-25T08:35:58;6.97;;;6.28;;
13252;SDS011;6693;54.370;10.132;2022-07-25T08:38:00;6.13;;;5.55;;
13252;SDS011;6693;54.370;10.132;2022-07-25T08:40:02;6.55;;;6.05;;
13252;SDS011;6693;54.370;10.132;2022-07-25T08:42:06;6.25;;;5.72;;
13252;SDS011;6693;54.370;10.132;2022-07-25T08:44:08;6.25;;;5.65;;
13252;SDS011;6693;54.370;10.132;2022-07-25T08:46:13;6.60;;;6.07;;
13252;SDS011;6693;54.370;10.132;2022-07-25T08:48:16;7.22;;;6.47;;
13252;SDS011;6693;54.370;10.132;2022-07-25T08:50:20;7.65;;;6.95;;
13252;SDS011;6693;54.370;10.132;2022-07-25T08:52:23;7.40;;;6.80;;
13252;SDS011;6693;54.370;10.132;2022-07-25T08:54:26;6.78;;;6.28;;
13252;SDS011;6693;54.370;10.132;2022-07-25T08:56:28;8.30;;;7.60;;
13252;SDS011;6693;54.370;10.132;2022-07-25T08:58:31;7.15;;;6.45;;
13252;SDS011;6693;54.370;10.132;2022-07-25T09:00:32;6.32;;;5.82;;
13252;SDS011;6693;54.370;10.132;2022-07-25T09:02:34;8.95;;;8.05;;
13252;SDS011;6693;54.370;10.132;2022-07-25T09:04:36;6.70;;;6.10;;
13252;SDS011;6693;54.370;10.132;2022-07-25T09:06:47;6.70;;;6.10;;
13252;SDS011;6693;54.370;10.132;2022-07-25T09:08:50;6.50;;;6.00;;
13252;SDS011;6693;54.370;10.132;2022-07-25T09:10:53;6.85;;;6.25;;
13252;SDS011;6693;54.370;10.132;2022-07-25T09:12:56;6.90;;;6.20;;
13252;SDS011;6693;54.370;10.132;2022-07-25T09:15:00;7.80;;;6.95;;
13252;SDS011;6693;54.370;10.132;2022-07-25T09:17:04;7.13;;;6.43;;
13252;SDS011;6693;54.370;10.132;2022-07-25T09:19:07;7.13;;;6.50;;
13252;SDS011;6693;54.370;10.132;2022-07-25T09:21:12;8.00;;;6.88;;
13252;SDS011;6693;54.370;10.132;2022-07-25T09:23:19;7.18;;;6.45;;
13252;SDS011;6693;54.370;10.132;2022-07-25T09:25:28;7.68;;;6.97;;
13252;SDS011;6693;54.370;10.132;2022-07-25T09:27:31;7.68;;;7.07;;
13252;SDS011;6693;54.370;10.132;2022-07-25T09:29:34;7.32;;;6.63;;
13252;SDS011;6693;54.370;10.132;2022-07-25T09:31:39;6.78;;;6.18;;
13252;SDS011;6693;54.370;10.132;2022-07-25T09:33:46;6.90;;;6.15;;
13252;SDS011;6693;54.370;10.132;2022-07-25T09:35:49;7.53;;;6.93;;
13252;SDS011;6693;54.370;10.132;2022-07-25T09:37:51;9.00;;;8.07;;
13252;SDS011;6693;54.370;10.132;2022-07-25T09:39:53;7.65;;;6.82;;
13252;SDS011;6693;54.370;10.132;2022-07-25T09:41:55;8.85;;;6.35;;
13252;SDS011;6693;54.370;10.132;2022-07-25T09:43:56;6.97;;;6.28;;
13252;SDS011;6693;54.370;10.132;2022-07-25T09:45:58;7.20;;;6.60;;
13252;SDS011;6693;54.370;10.132;2022-07-25T09:48:02;7.95;;;7.30;;
13252;SDS011;6693;54.370;10.132;2022-07-25T09:50:05;7.50;;;6.90;;
13252;SDS011;6693;54.370;10.132;2022-07-25T09:52:07;8.00;;;7.30;;
13252;SDS011;6693;54.370;10.132;2022-07-25T09:54:09;9.57;;;7.60;;
13252;SDS011;6693;54.370;10.132;2022-07-25T09:56:11;7.72;;;7.13;;
13252;SDS011;6693;54.370;10.132;2022-07-25T09:58:12;7.18;;;6.57;;
13252;SDS011;6693;54.370;10.132;2022-07-25T10:00:15;7.90;;;7.03;;
13252;SDS011;6693;54.370;10.132;2022-07-25T10:02:25;7.03;;;6.32;;
13252;SDS011;6693;54.370;10.132;2022-07-25T10:04:42;6.50;;;5.78;;
13252;SDS011;6693;54.370;10.132;2022-07-25T10:06:47;7.65;;;7.05;;
13252;SDS011;6693;54.370;10.132;2022-07-25T10:08:55;7.15;;;6.55;;
13252;SDS011;6693;54.370;10.132;2022-07-25T10:10:57;7.43;;;6.82;;
13252;SDS011;6693;54.370;10.132;2022-07-25T10:12:59;8.00;;;7.30;;
13252;SDS011;6693;54.370;10.132;2022-07-25T10:15:07;8.45;;;7.65;;
13252;SDS011;6693;54.370;10.132;2022-07-25T10:17:18;7.25;;;6.60;;
13252;SDS011;6693;54.370;10.132;2022-07-25T10:19:34;7.75;;;7.10;;
13252;SDS011;6693;54.370;10.132;2022-07-25T10:21:37;7.50;;;6.70;;
13252;SDS011;6693;54.370;10.132;2022-07-25T10:23:39;7.70;;;7.00;;
13252;SDS011;6693;54.370;10.132;2022-07-25T10:25:42;7.40;;;6.78;;
13252;SDS011;6693;54.370;10.132;2022-07-25T10:27:44;7.60;;;7.00;;
13252;SDS011;6693;54.370;10.132;2022-07-25T10:29:51;7.43;;;6.75;;
13252;SDS011;6693;54.370;10.132;2022-07-25T10:32:03;7.07;;;6.47;;
13252;SDS011;6693;54.370;10.132;2022-07-25T10:34:08;8.07;;;7.30;;
13252;SDS011;6693;54.370;10.132;2022-07-25T10:36:11;6.80;;;6.20;;
13252;SDS011;6693;54.370;10.132;2022-07-25T10:38:22;7.97;;;7.18;;
13252;SDS011;6693;54.370;10.132;2022-07-25T10:40:25;7.35;;;6.85;;
13252;SDS011;6693;54.370;10.132;2022-07-25T10:42:28;7.88;;;7.18;;
13252;SDS011;6693;54.370;10.132;2022-07-25T10:44:41;7.43;;;6.82;;
13252;SDS011;6693;54.370;10.132;2022-07-25T10:46:44;8.93;;;7.00;;
13252;SDS011;6693;54.370;10.132;2022-07-25T10:48:55;8.68;;;6.65;;
13252;SDS011;6693;54.370;10.132;2022-07-25T10:50:59;7.85;;;7.22;;
13252;SDS011;6693;54.370;10.132;2022-07-25T10:53:03;7.75;;;7.15;;
13252;SDS011;6693;54.370;10.132;2022-07-25T10:55:09;7.32;;;6.60;;
13252;SDS011;6693;54.370;10.132;2022-07-25T10:57:22;7.93;;;7.00;;
13252;SDS011;6693;54.370;10.132;2022-07-25T10:59:24;7.10;;;6.40;;
13252;SDS011;6693;54.370;10.132;2022-07-25T11:01:28;7.45;;;6.80;;
13252;SDS011;6693;54.370;10.132;2022-07-25T11:03:31;8.00;;;7.40;;
13252;SDS011;6693;54.370;10.132;2022-07-25T11:05:42;6.72;;;6.03;;
13252;SDS011;6693;54.370;10.132;2022-07-25T11:07:48;7.85;;;7.25;;
13252;SDS011;6693;54.370;10.132;2022-07-25T11:09:54;8.05;;;7.45;;
13252;SDS011;6693;54.370;10.132;2022-07-25T11:11:58;7.53;;;7.00;;
13252;SDS011;6693;54.370;10.132;2022-07-25T11:14:00;7.60;;;7.00;;
13252;SDS011;6693;54.370;10.132;2022-07-25T11:16:03;7.50;;;6.90;;
13252;SDS011;6693;54.370;10.132;2022-07-25T11:18:05;8.20;;;6.72;;
13252;SDS011;6693;54.370;10.132;2022-07-25T11:20:07;6.80;;;6.28;;
13252;SDS011;6693;54.370;10.132;2022-07-25T11:22:10;7.20;;;6.50;;
13252;SDS011;6693;54.370;10.132;2022-07-25T11:24:12;7.35;;;6.70;;
13252;SDS011;6693;54.370;10.132;2022-07-25T11:26:14;7.65;;;7.00;;
13252;SDS011;6693;54.370;10.132;2022-07-25T11:28:17;6.93;;;6.43;;
13252;SDS011;6693;54.370;10.132;2022-07-25T11:30:18;7.53;;;6.93;;
13252;SDS011;6693;54.370;10.132;2022-07-25T11:32:20;7.45;;;6.90;;
13252;SDS011;6693;54.370;10.132;2022-07-25T11:34:23;7.60;;;7.00;;
13252;SDS011;6693;54.370;10.132;2022-07-25T11:36:26;6.85;;;6.35;;
13252;SDS011;6693;54.370;10.132;2022-07-25T11:38:30;7.40;;;6.78;;
13252;SDS011;6693;54.370;10.132;2022-07-25T11:40:32;7.70;;;7.03;;
13252;SDS011;6693;54.370;10.132;2022-07-25T11:42:38;7.97;;;7.28;;
13252;SDS011;6693;54.370;10.132;2022-07-25T11:44:43;7.40;;;6.80;;
13252;SDS011;6693;54.370;10.132;2022-07-25T11:46:46;7.28;;;6.68;;
13252;SDS011;6693;54.370;10.132;2022-07-25T11:48:47;7.90;;;7.20;;
13252;SDS011;6693;54.370;10.132;2022-07-25T11:50:49;7.30;;;6.70;;
13252;SDS011;6693;54.370;10.132;2022-07-25T11:52:57;7.40;;;6.60;;
13252;SDS011;6693;54.370;10.132;2022-07-25T11:55:00;7.32;;;6.72;;
13252;SDS011;6693;54.370;10.132;2022-07-25T11:57:02;7.45;;;6.75;;
13252;SDS011;6693;54.370;10.132;2022-07-25T11:59:04;7.82;;;7.22;;
13252;SDS011;6693;54.370;10.132;2022-07-25T12:01:11;7.47;;;6.88;;
13252;SDS011;6693;54.370;10.132;2022-07-25T12:03:16;7.55;;;6.88;;
13252;SDS011;6693;54.370;10.132;2022-07-25T12:05:20;7.82;;;7.13;;
13252;SDS011;6693;54.370;10.132;2022-07-25T12:07:33;7.32;;;6.65;;
13252;SDS011;6693;54.370;10.132;2022-07-25T12:09:39;6.80;;;6.15;;
13252;SDS011;6693;54.370;10.132;2022-07-25T12:11:40;7.35;;;6.70;;
13252;SDS011;6693;54.370;10.132;2022-07-25T12:13:43;7.53;;;6.93;;
13252;SDS011;6693;54.370;10.132;2022-07-25T12:15:44;7.93;;;7.22;;